createdAt,value
2022-12-03T00:00:56.383Z,96026.87
2022-12-03T00:03:25.384Z,96033.49
2022-12-03T00:05:54.209Z,96031.14
2022-12-03T00:08:22.987Z,96035.38
2022-12-03T00:10:51.646Z,96036.27
2022-12-03T00:13:20.386Z,96049.21
2022-12-03T00:15:55.162Z,96052.48
2022-12-03T00:18:23.897Z,96054.19
2022-12-03T00:20:52.624Z,96057.89
2022-12-03T00:23:21.327Z,96055.16
2022-12-03T00:25:50.562Z,96050.96
2022-12-03T00:28:19.267Z,96058.89
2022-12-03T00:30:48.134Z,96061.89
2022-12-03T00:33:16.807Z,96057.19
2022-12-03T00:35:46.860Z,96060.87
2022-12-03T00:38:16.367Z,96061.01
2022-12-03T00:40:45.272Z,96069.00
2022-12-03T00:43:14.237Z,96067.45
2022-12-03T00:45:43.179Z,96072.01
2022-12-03T00:48:11.815Z,96073.70
2022-12-03T00:50:40.608Z,96071.76
2022-12-03T00:53:09.267Z,96077.00
2022-12-03T00:55:38.134Z,96077.98
2022-12-03T00:58:08.597Z,96082.30
2022-12-03T01:00:37.926Z,96087.33
2022-12-03T01:03:06.777Z,96090.33
2022-12-03T01:05:35.435Z,96089.84
2022-12-03T01:08:04.452Z,96092.77
2022-12-03T01:10:33.128Z,96098.20
2022-12-03T01:13:03.305Z,96093.83
2022-12-03T01:15:31.991Z,96098.09
2022-12-03T01:18:00.703Z,96100.23
2022-12-03T01:20:29.481Z,96099.34
2022-12-03T01:22:58.155Z,96102.78
2022-12-03T01:25:26.748Z,96102.59
2022-12-03T01:27:55.456Z,96102.59
2022-12-03T01:30:24.128Z,96104.67
2022-12-03T01:32:52.871Z,96111.98
2022-12-03T01:35:21.577Z,96107.19
2022-12-03T01:37:50.245Z,96108.28
2022-12-03T01:40:20.807Z,96107.57
2022-12-03T01:42:49.467Z,96109.99
2022-12-03T01:45:21.142Z,96118.00
2022-12-03T01:47:49.837Z,96112.41
2022-12-03T01:50:24.548Z,96107.02
2022-12-03T01:52:56.492Z,96099.23
2022-12-03T01:55:27.269Z,96102.66
2022-12-03T01:57:58.876Z,96105.17
2022-12-03T02:00:29.213Z,96105.17
2022-12-03T02:03:07.101Z,96106.44
2022-12-03T02:05:35.971Z,96098.30
2022-12-03T02:08:24.147Z,96098.59
2022-12-03T02:10:52.880Z,96096.69
2022-12-03T02:13:22.206Z,96096.03
2022-12-03T02:15:51.120Z,96106.66
2022-12-03T02:18:20.183Z,96104.38
2022-12-03T02:20:51.804Z,96097.84
2022-12-03T02:23:29.144Z,96097.74
2022-12-03T02:25:57.808Z,96096.93
2022-12-03T02:28:26.679Z,96101.30
2022-12-03T02:30:55.386Z,96096.88
2022-12-03T02:33:24.062Z,96089.70
2022-12-03T02:35:52.771Z,96095.81
2022-12-03T02:38:27.042Z,96094.61
2022-12-03T02:40:59.205Z,96094.81
2022-12-03T02:43:27.951Z,96089.22
2022-12-03T02:45:59.850Z,96090.06
2022-12-03T02:48:34.312Z,96092.17
2022-12-03T02:51:09.381Z,96098.56
2022-12-03T02:53:42.549Z,96102.88
2022-12-03T02:56:14.457Z,96097.95
2022-12-03T02:58:44.956Z,96097.33
2022-12-03T03:01:15.749Z,96094.75
2022-12-03T03:03:47.614Z,96089.64
2022-12-03T03:06:16.949Z,96087.15
2022-12-03T03:08:46.096Z,96093.77
2022-12-03T03:11:14.892Z,96096.69
2022-12-03T03:13:43.975Z,96088.19
2022-12-03T03:16:13.006Z,96095.16
2022-12-03T03:18:42.244Z,96099.58
2022-12-03T03:21:10.997Z,96097.52
2022-12-03T03:23:39.654Z,96086.64
2022-12-03T03:26:11.034Z,96086.52
2022-12-03T03:28:43.162Z,96086.97
2022-12-03T03:31:14.636Z,96080.92
2022-12-03T03:33:46.561Z,96077.49
2022-12-03T03:36:16.473Z,96082.95
2022-12-03T03:38:45.223Z,96080.83
2022-12-03T03:41:15.440Z,96087.03
2022-12-03T03:43:45.910Z,96092.33
2022-12-03T03:46:15.522Z,96095.59
2022-12-03T03:48:45.019Z,96096.27
2022-12-03T03:51:14.498Z,96094.69
2022-12-03T03:53:50.948Z,96100.66
2022-12-03T03:56:22.334Z,96108.83
2022-12-03T03:58:51.020Z,96108.25
2022-12-03T04:01:20.114Z,96107.28
2022-12-03T04:03:48.881Z,96107.47
2022-12-03T04:06:18.602Z,96112.25
2022-12-03T04:08:47.243Z,96109.60
2022-12-03T04:11:33.812Z,96100.95
2022-12-03T04:14:02.452Z,96101.14
2022-12-03T04:16:31.207Z,96116.34
2022-12-03T04:19:01.157Z,96113.80
2022-12-03T04:21:37.249Z,96120.45
2022-12-03T04:24:07.725Z,96126.16
2022-12-03T04:26:54.862Z,96124.45
2022-12-03T04:29:23.658Z,96123.13
2022-12-03T04:32:10.658Z,96126.52
2022-12-03T04:34:57.136Z,96124.59
2022-12-03T04:37:25.903Z,96131.06
2022-12-03T04:39:54.611Z,96132.77
2022-12-03T04:42:23.765Z,96137.47
2022-12-03T04:44:52.849Z,96136.28
2022-12-03T04:47:23.177Z,96137.61
2022-12-03T04:49:53.096Z,96145.76
2022-12-03T04:52:26.333Z,96137.53
2022-12-03T04:54:56.261Z,96141.56
2022-12-03T04:57:25.522Z,96136.20
2022-12-03T04:59:54.143Z,96131.20
2022-12-03T05:02:25.682Z,96131.66
2022-12-03T05:04:54.736Z,96135.17
2022-12-03T05:07:23.695Z,96138.66
2022-12-03T05:09:55.061Z,96137.19
2022-12-03T05:12:27.790Z,96140.16
2022-12-03T05:14:56.744Z,96137.64
2022-12-03T05:17:27.175Z,96131.41
2022-12-03T05:20:15.290Z,96143.45
2022-12-03T05:22:43.963Z,96070.70
2022-12-03T05:25:12.701Z,96139.01
2022-12-03T05:27:41.450Z,96137.64
2022-12-03T05:30:10.917Z,96141.28
2022-12-03T05:32:39.628Z,96146.97
2022-12-03T05:35:08.557Z,96146.72
2022-12-03T05:37:37.370Z,96146.09
2022-12-03T05:40:08.223Z,96148.60
2022-12-03T05:42:56.390Z,96103.78
2022-12-03T05:45:26.755Z,96145.95
2022-12-03T05:47:56.726Z,96152.93
2022-12-03T05:50:28.260Z,96155.91
2022-12-03T05:52:58.135Z,96161.57
2022-12-03T05:55:28.360Z,96161.96
2022-12-03T05:57:57.780Z,96164.29
2022-12-03T06:00:29.397Z,96161.66
2022-12-03T06:02:59.251Z,96164.97
2022-12-03T06:05:29.406Z,96170.98
2022-12-03T06:07:58.455Z,96173.01
2022-12-03T06:10:30.601Z,96179.57
2022-12-03T06:12:59.401Z,96185.69
2022-12-03T06:15:29.496Z,96184.75
2022-12-03T06:17:59.672Z,96187.23
2022-12-03T06:20:28.321Z,96184.94
2022-12-03T06:22:56.958Z,96190.46
2022-12-03T06:25:25.752Z,96186.94
2022-12-03T06:27:55.989Z,96185.89
2022-12-03T06:30:24.691Z,96188.77
2022-12-03T06:32:53.363Z,96190.37
2022-12-03T06:35:22.254Z,96200.30
2022-12-03T06:37:50.972Z,96155.82
2022-12-03T06:40:21.759Z,96194.82
2022-12-03T06:42:54.263Z,96192.08
2022-12-03T06:45:22.962Z,96195.46
2022-12-03T06:47:51.821Z,96197.70
2022-12-03T06:50:22.260Z,96198.41
2022-12-03T06:52:50.825Z,96194.37
2022-12-03T06:55:19.631Z,96188.54
2022-12-03T06:57:48.365Z,96187.81
2022-12-03T07:00:17.352Z,96188.91
2022-12-03T07:02:46.035Z,96195.86
2022-12-03T07:05:15.106Z,96192.31
2022-12-03T07:07:43.935Z,96195.86
2022-12-03T07:10:14.930Z,96201.35
2022-12-03T07:12:44.565Z,96204.17
2022-12-03T07:15:14.479Z,96137.37
2022-12-03T07:21:11.561Z,96143.78
2022-12-03T07:23:40.466Z,96211.17
2022-12-03T07:26:15.100Z,96214.25
2022-12-03T07:28:44.431Z,96211.42
2022-12-03T07:31:13.109Z,96212.63
2022-12-03T07:33:42.879Z,96206.72
2022-12-03T07:36:11.789Z,96207.61
2022-12-03T07:38:44.777Z,96215.15
2022-12-03T07:41:13.805Z,96222.88
2022-12-03T07:43:44.048Z,96224.11
2022-12-03T07:46:15.843Z,96221.23
2022-12-03T07:49:28.472Z,96222.42
2022-12-03T07:51:57.822Z,96220.40
2022-12-03T08:00:37.236Z,96227.86
2022-12-03T08:03:17.968Z,96222.03
2022-12-03T08:05:43.908Z,96221.22
2022-12-03T08:08:12.672Z,96223.55
2022-12-03T08:10:44.325Z,96231.09
2022-12-03T08:13:22.046Z,96232.16
2022-12-03T08:15:58.244Z,96232.39
2022-12-03T08:24:26.917Z,96234.77
2022-12-03T08:27:47.280Z,96237.34
2022-12-03T08:30:37.033Z,96244.98
2022-12-03T08:33:39.134Z,96246.09
2022-12-03T08:36:12.724Z,96251.92
2022-12-03T08:39:01.771Z,96250.34
2022-12-03T08:41:39.061Z,96252.66
2022-12-03T08:44:35.088Z,96253.91
2022-12-03T08:47:13.253Z,96256.95
2022-12-03T08:49:51.022Z,96255.48
2022-12-03T08:52:34.169Z,96254.88
2022-12-03T08:55:06.950Z,96255.95
2022-12-03T09:07:22.018Z,96248.27
2022-12-03T09:09:50.781Z,96250.34
2022-12-03T09:12:28.253Z,96242.11
2022-12-03T09:14:58.444Z,96242.28
2022-12-03T09:17:35.228Z,96242.52
2022-12-03T09:20:15.204Z,96243.94
2022-12-03T09:22:59.773Z,96220.41
2022-12-03T09:25:28.668Z,96246.42
2022-12-03T09:28:01.607Z,96242.84
2022-12-03T09:30:36.506Z,96244.87
2022-12-03T09:46:44.211Z,96236.60
2022-12-03T10:52:45.275Z,96195.27
2022-12-03T10:58:50.494Z,96189.66
2022-12-03T11:11:12.807Z,96176.88
2022-12-03T11:18:38.032Z,96169.37
2022-12-03T11:19:46.589Z,96172.38
2022-12-03T11:22:27.365Z,96177.01
2022-12-03T11:25:29.672Z,96175.37
2022-12-03T11:28:35.853Z,96176.91
2022-12-03T11:31:08.901Z,96173.55
2022-12-03T11:33:59.562Z,96176.85
2022-12-03T11:39:20.733Z,96166.91
2022-12-03T11:42:40.284Z,96166.48
2022-12-03T11:50:40.709Z,96160.36
2022-12-03T11:59:09.707Z,96155.10
2022-12-03T12:01:44.047Z,96151.37
2022-12-03T12:04:32.570Z,96156.45
2022-12-03T12:17:43.137Z,96155.52
2022-12-03T12:20:16.567Z,96152.19
2022-12-03T12:22:46.036Z,96145.81
2022-12-03T12:25:32.856Z,96144.63
2022-12-03T12:28:06.660Z,96143.86
2022-12-03T12:30:35.481Z,96139.25
2022-12-03T12:33:13.227Z,96140.39
2022-12-03T12:35:45.564Z,96138.73
2022-12-03T12:38:22.291Z,96135.22
2022-12-03T12:40:51.872Z,96138.86
2022-12-03T12:50:33.825Z,96139.69
2022-12-03T12:53:26.491Z,96138.61
2022-12-03T12:56:02.150Z,96133.07
2022-12-03T12:58:38.239Z,96139.30
2022-12-03T13:01:16.048Z,96142.85
2022-12-03T13:03:44.737Z,96146.38
2022-12-03T13:06:17.850Z,96142.58
2022-12-03T13:08:54.089Z,96126.17
2022-12-03T13:11:32.127Z,96137.23
2022-12-03T13:14:06.849Z,96136.59
2022-12-03T13:16:39.125Z,96128.63
2022-12-03T13:19:16.817Z,96132.94
2022-12-03T13:21:46.831Z,96133.78
2022-12-03T13:25:08.868Z,96138.51
2022-12-03T13:36:45.767Z,96046.95
2022-12-03T14:36:17.581Z,96141.17
2022-12-03T14:58:52.991Z,96163.44
2022-12-03T15:55:17.241Z,96189.58
2022-12-03T16:08:04.575Z,96190.80
2022-12-03T16:17:09.305Z,96193.27
2022-12-03T16:19:57.020Z,96193.55
2022-12-03T16:25:33.593Z,96195.48
2022-12-03T16:28:05.902Z,96198.46
2022-12-03T16:30:43.381Z,96198.02
2022-12-03T16:33:22.526Z,96201.71
2022-12-03T16:35:47.582Z,96198.46
2022-12-03T16:38:16.448Z,96200.19
2022-12-03T16:40:45.142Z,96206.09
2022-12-03T16:43:15.764Z,96207.64
2022-12-03T16:45:58.736Z,96210.22
2022-12-03T16:48:45.212Z,96205.09
2022-12-03T16:51:57.152Z,96209.12
2022-12-03T17:52:32.543Z,96225.48
2022-12-03T17:58:54.910Z,96218.30
2022-12-03T18:04:39.672Z,96222.73
2022-12-03T18:08:14.110Z,96229.19
2022-12-03T18:10:31.510Z,96227.63
2022-12-03T18:27:10.327Z,96237.09
2022-12-03T18:59:34.482Z,96240.80
2022-12-03T19:03:00.684Z,96245.92
2022-12-03T19:37:28.307Z,96258.67
2022-12-03T19:49:17.794Z,96248.26
2022-12-03T19:49:25.054Z,96251.70
2022-12-03T19:52:06.413Z,96248.05
2022-12-03T19:58:01.549Z,96247.86
2022-12-03T20:04:21.003Z,96251.81
2022-12-03T20:20:26.426Z,96253.14
2022-12-03T20:23:05.137Z,96253.94
2022-12-03T20:25:40.941Z,96257.13
2022-12-03T20:28:12.351Z,96256.80
2022-12-03T20:31:11.399Z,96259.80
2022-12-03T20:34:23.088Z,96268.45
2022-12-03T20:43:22.098Z,96259.02
2022-12-03T20:46:02.565Z,96260.81
2022-12-03T20:48:24.473Z,96269.30
2022-12-03T20:57:53.093Z,96274.14
2022-12-03T21:00:47.390Z,96263.70
2022-12-03T21:03:19.903Z,96261.98
2022-12-03T21:06:02.478Z,96264.87
2022-12-03T21:08:41.950Z,96259.56
2022-12-03T21:11:24.329Z,96263.39
2022-12-03T21:13:54.876Z,96255.75
2022-12-03T21:19:32.576Z,96258.01
2022-12-03T21:22:04.453Z,96255.77
2022-12-03T21:24:51.240Z,96261.98
2022-12-03T21:27:21.993Z,96260.75
2022-12-03T21:29:54.376Z,96259.63
2022-12-03T21:32:52.057Z,96254.25
2022-12-03T21:39:00.041Z,96264.15
2022-12-03T21:45:14.902Z,96269.70
2022-12-03T21:48:06.451Z,96269.59
2022-12-03T21:57:01.809Z,96264.45
2022-12-03T21:59:47.451Z,96271.61
2022-12-03T22:16:04.290Z,96267.14
2022-12-03T22:28:44.607Z,96249.98
2022-12-03T22:35:07.658Z,96248.56
2022-12-03T22:40:56.899Z,96251.08
2022-12-03T22:57:11.087Z,96241.41
2022-12-03T22:59:39.878Z,96248.05
2022-12-03T23:02:10.332Z,96241.20
2022-12-03T23:04:38.912Z,96240.15
2022-12-03T23:07:09.073Z,96240.06
2022-12-03T23:09:45.353Z,96244.59
2022-12-03T23:12:23.320Z,96243.73
2022-12-03T23:14:59.693Z,96236.73
2022-12-03T23:17:34.359Z,96236.24
2022-12-03T23:20:03.749Z,96240.62
2022-12-03T23:22:32.461Z,96236.09
2022-12-03T23:25:01.117Z,96231.75
2022-12-03T23:27:34.437Z,96229.31
2022-12-03T23:30:05.459Z,96231.90
2022-12-03T23:32:48.664Z,96236.33
2022-12-03T23:35:18.994Z,96232.68
2022-12-03T23:37:49.355Z,96235.84
2022-12-03T23:40:20.317Z,96231.50
2022-12-03T23:42:59.671Z,96233.11
2022-12-03T23:45:28.527Z,96229.68
2022-12-03T23:48:03.177Z,96228.04
2022-12-03T23:50:31.911Z,96232.19
2022-12-03T23:53:03.432Z,96235.20
2022-12-03T23:55:32.147Z,96230.78
2022-12-03T23:58:00.752Z,96234.75
